createdAt,value
2023-05-09T00:03:08.995Z,14.00
2023-05-09T00:06:51.207Z,14.10
2023-05-09T00:10:33.030Z,14.00
2023-05-09T00:14:14.976Z,14.00
2023-05-09T00:17:56.964Z,14.10
2023-05-09T00:21:39.107Z,14.10
2023-05-09T00:25:21.057Z,14.10
2023-05-09T00:29:03.070Z,14.10
2023-05-09T00:32:45.495Z,14.10
2023-05-09T00:36:27.277Z,14.20
2023-05-09T00:40:09.681Z,14.20
2023-05-09T00:43:51.457Z,14.20
2023-05-09T00:47:34.883Z,14.20
2023-05-09T00:51:17.065Z,14.20
2023-05-09T00:54:59.241Z,14.20
2023-05-09T00:58:41.400Z,14.30
2023-05-09T01:02:24.096Z,14.30
2023-05-09T01:06:15.725Z,14.30
2023-05-09T01:10:30.055Z,14.30
2023-05-09T01:14:26.599Z,14.30
2023-05-09T01:18:24.500Z,14.30
2023-05-09T01:22:08.949Z,14.30
2023-05-09T01:26:13.067Z,14.30
2023-05-09T01:29:59.527Z,14.30
2023-05-09T01:33:43.382Z,14.30
2023-05-09T01:37:31.702Z,14.30
2023-05-09T01:41:16.749Z,14.30
2023-05-09T01:44:59.650Z,14.20
2023-05-09T01:48:42.611Z,14.10
2023-05-09T01:52:25.707Z,14.10
2023-05-09T01:56:09.473Z,14.00
2023-05-09T01:59:52.200Z,13.90
2023-05-09T02:03:34.859Z,13.90
2023-05-09T02:07:17.078Z,13.90
2023-05-09T02:10:59.083Z,14.00
2023-05-09T02:14:40.843Z,14.00
2023-05-09T02:18:22.816Z,13.90
2023-05-09T02:22:05.156Z,13.80
2023-05-09T02:25:47.153Z,13.80
2023-05-09T02:29:40.030Z,13.80
2023-05-09T02:33:22.741Z,13.70
2023-05-09T02:37:05.462Z,13.70
2023-05-09T02:40:47.770Z,13.60
2023-05-09T02:44:29.538Z,13.60
2023-05-09T02:48:11.344Z,13.60
2023-05-09T02:51:53.126Z,13.70
2023-05-09T02:55:35.157Z,13.70
2023-05-09T02:59:19.226Z,13.70
2023-05-09T03:03:01.173Z,13.70
2023-05-09T03:06:43.252Z,13.70
2023-05-09T03:10:25.090Z,13.70
2023-05-09T03:14:08.470Z,13.80
2023-05-09T03:17:50.336Z,13.80
2023-05-09T03:21:32.174Z,13.80
2023-05-09T03:25:14.396Z,13.70
2023-05-09T03:28:56.304Z,13.70
2023-05-09T03:32:39.047Z,13.70
2023-05-09T03:36:20.850Z,13.70
2023-05-09T03:40:02.608Z,13.70
2023-05-09T03:43:44.744Z,13.70
2023-05-09T03:47:26.472Z,13.80
2023-05-09T03:51:08.621Z,13.70
2023-05-09T03:54:50.385Z,13.70
2023-05-09T03:58:32.100Z,13.70
2023-05-09T04:02:13.989Z,13.80
2023-05-09T04:05:56.122Z,13.80
2023-05-09T04:09:38.026Z,13.80
2023-05-09T04:13:19.789Z,13.80
2023-05-09T04:17:01.789Z,13.70
2023-05-09T04:20:43.603Z,13.70
2023-05-09T04:24:25.328Z,13.70
2023-05-09T04:28:07.105Z,13.70
2023-05-09T04:31:48.985Z,13.70
2023-05-09T04:35:30.916Z,13.70
2023-05-09T04:39:12.923Z,13.70
2023-05-09T04:42:54.688Z,13.70
2023-05-09T04:46:36.552Z,13.70
2023-05-09T04:50:18.646Z,13.70
2023-05-09T04:54:00.653Z,13.70
2023-05-09T04:57:42.403Z,13.70
2023-05-09T05:01:24.281Z,13.70
2023-05-09T05:05:12.185Z,13.70
2023-05-09T05:08:54.422Z,13.70
2023-05-09T05:12:36.252Z,13.70
2023-05-09T05:16:18.094Z,13.70
2023-05-09T05:19:59.978Z,13.70
2023-05-09T05:23:41.827Z,13.60
2023-05-09T05:27:23.708Z,13.70
2023-05-09T05:31:05.611Z,13.70
2023-05-09T05:34:47.352Z,13.70
2023-05-09T05:38:29.078Z,13.80
2023-05-09T05:42:10.868Z,13.80
2023-05-09T05:45:52.737Z,13.80
2023-05-09T05:49:34.422Z,13.80
2023-05-09T05:53:16.222Z,13.80
2023-05-09T05:56:57.924Z,13.90
2023-05-09T06:00:40.160Z,13.90
2023-05-09T06:04:22.113Z,13.90
2023-05-09T06:08:04.279Z,13.90
2023-05-09T06:11:46.051Z,13.90
2023-05-09T06:15:27.922Z,14.00
2023-05-09T06:19:09.645Z,14.00
2023-05-09T06:22:51.659Z,14.00
2023-05-09T06:26:33.550Z,14.00
2023-05-09T06:30:25.317Z,14.00
2023-05-09T06:34:08.671Z,14.00
2023-05-09T06:37:50.653Z,14.10
2023-05-09T06:41:32.437Z,14.20
2023-05-09T06:45:14.670Z,14.30
2023-05-09T06:48:56.633Z,14.30
2023-05-09T06:52:38.374Z,14.30
2023-05-09T06:56:22.719Z,14.30
2023-05-09T07:00:05.213Z,14.30
2023-05-09T07:03:49.856Z,14.30
2023-05-09T07:07:31.682Z,14.30
2023-05-09T07:11:13.441Z,14.30
2023-05-09T07:14:55.262Z,14.30
2023-05-09T07:18:37.060Z,14.30
2023-05-09T07:22:19.024Z,14.40
2023-05-09T07:26:01.638Z,14.50
2023-05-09T07:29:43.441Z,14.60
2023-05-09T07:33:25.286Z,14.70
2023-05-09T07:37:07.047Z,14.80
2023-05-09T07:40:48.882Z,15.00
2023-05-09T07:44:31.198Z,15.20
2023-05-09T07:48:13.167Z,15.30
2023-05-09T07:51:54.936Z,15.40
2023-05-09T07:55:36.773Z,15.40
2023-05-09T07:59:18.774Z,15.50
2023-05-09T08:03:00.954Z,15.60
2023-05-09T08:06:42.966Z,15.70
2023-05-09T08:10:25.028Z,15.60
2023-05-09T08:14:06.850Z,15.60
2023-05-09T08:17:48.702Z,15.60
2023-05-09T08:21:30.727Z,15.70
2023-05-09T08:25:14.532Z,15.80
2023-05-09T08:28:56.413Z,15.90
2023-05-09T08:32:38.228Z,16.00
2023-05-09T08:36:20.017Z,16.00
2023-05-09T08:40:02.217Z,16.10
2023-05-09T08:43:44.845Z,16.30
2023-05-09T08:47:26.970Z,16.40
2023-05-09T08:51:11.104Z,16.50
2023-05-09T08:54:53.412Z,16.50
2023-05-09T08:58:35.651Z,16.40
2023-05-09T09:02:17.700Z,16.40
2023-05-09T09:06:01.084Z,16.30
2023-05-09T09:09:46.396Z,16.30
2023-05-09T09:13:29.065Z,16.20
2023-05-09T09:17:18.217Z,16.20
2023-05-09T09:21:08.643Z,16.20
2023-05-09T09:24:51.176Z,16.30
2023-05-09T09:28:33.516Z,16.40
2023-05-09T09:32:15.409Z,16.50
2023-05-09T09:35:57.507Z,16.60
2023-05-09T09:39:54.362Z,16.80
2023-05-09T09:43:36.104Z,17.00
2023-05-09T09:47:17.890Z,17.30
2023-05-09T09:51:18.697Z,17.40
2023-05-09T09:55:00.620Z,17.50
2023-05-09T09:58:42.364Z,17.60
2023-05-09T10:02:24.906Z,17.60
2023-05-09T10:06:10.990Z,17.70
2023-05-09T10:09:52.776Z,17.60
2023-05-09T10:13:39.379Z,17.70
2023-05-09T10:17:22.716Z,17.70
2023-05-09T10:21:07.641Z,17.60
2023-05-09T10:25:04.011Z,17.50
2023-05-09T10:28:47.869Z,17.50
2023-05-09T10:32:50.957Z,17.60
2023-05-09T10:36:32.902Z,17.70
2023-05-09T10:40:15.673Z,17.90
2023-05-09T10:43:59.139Z,18.00
2023-05-09T10:47:43.410Z,17.90
2023-05-09T10:51:25.785Z,18.00
2023-05-09T10:55:09.571Z,18.10
2023-05-09T10:58:51.373Z,18.00
2023-05-09T11:02:34.864Z,18.10
2023-05-09T11:06:52.480Z,18.30
2023-05-09T11:10:42.926Z,18.50
2023-05-09T11:14:33.406Z,18.60
2023-05-09T11:18:15.312Z,18.60
2023-05-09T11:22:02.921Z,18.60
2023-05-09T11:25:49.141Z,18.40
2023-05-09T11:29:30.945Z,18.40
2023-05-09T11:33:30.196Z,18.40
2023-05-09T11:37:20.277Z,18.30
2023-05-09T11:41:02.104Z,18.30
2023-05-09T11:44:44.040Z,18.40
2023-05-09T11:48:25.786Z,18.40
2023-05-09T11:52:07.620Z,18.40
2023-05-09T11:55:49.673Z,18.40
2023-05-09T11:59:33.163Z,18.30
2023-05-09T12:03:15.350Z,18.40
2023-05-09T12:06:59.394Z,18.40
2023-05-09T12:10:41.518Z,18.40
2023-05-09T12:14:34.331Z,18.50
2023-05-09T12:18:18.234Z,18.80
2023-05-09T12:22:01.543Z,18.90
2023-05-09T12:26:09.959Z,18.90
2023-05-09T12:29:54.835Z,18.90
2023-05-09T12:33:38.444Z,18.90
2023-05-09T12:37:20.572Z,18.90
2023-05-09T12:41:04.408Z,18.90
2023-05-09T12:44:49.403Z,18.90
2023-05-09T12:48:37.765Z,18.80
2023-05-09T12:52:21.605Z,18.70
2023-05-09T12:56:05.360Z,18.60
2023-05-09T12:59:47.201Z,18.50
2023-05-09T13:03:31.474Z,18.50
2023-05-09T13:07:13.664Z,18.30
2023-05-09T13:11:03.882Z,18.20
2023-05-09T13:14:56.664Z,18.20
2023-05-09T13:18:38.526Z,18.20
2023-05-09T13:22:21.117Z,18.30
2023-05-09T13:26:02.865Z,18.40
2023-05-09T13:29:44.635Z,18.50
2023-05-09T13:33:26.900Z,18.60
2023-05-09T13:37:08.883Z,18.60
2023-05-09T13:40:50.701Z,18.60
2023-05-09T13:44:32.480Z,18.60
2023-05-09T13:48:14.253Z,18.50
2023-05-09T13:51:56.065Z,18.50
2023-05-09T13:55:37.921Z,18.60
2023-05-09T13:59:19.676Z,18.70
2023-05-09T14:03:03.146Z,18.50
2023-05-09T14:06:48.094Z,18.40
2023-05-09T14:10:29.921Z,18.30
2023-05-09T14:14:11.857Z,18.10
2023-05-09T14:17:53.716Z,18.00
2023-05-09T14:21:35.487Z,18.00
2023-05-09T14:25:17.253Z,17.90
2023-05-09T14:28:59.042Z,17.80
2023-05-09T14:32:40.863Z,17.70
2023-05-09T14:36:22.955Z,17.60
2023-05-09T14:40:05.764Z,17.40
2023-05-09T14:43:48.562Z,17.20
2023-05-09T14:47:30.522Z,17.10
2023-05-09T14:51:12.292Z,16.90
2023-05-09T14:54:54.040Z,16.80
2023-05-09T14:58:35.916Z,16.70
2023-05-09T15:02:17.682Z,16.60
2023-05-09T15:05:59.648Z,16.50
2023-05-09T15:09:41.709Z,16.40
2023-05-09T15:13:23.820Z,16.20
2023-05-09T15:17:06.283Z,16.10
2023-05-09T15:20:48.108Z,16.00
2023-05-09T15:24:29.821Z,15.80
2023-05-09T15:28:11.649Z,15.80
2023-05-09T15:31:54.833Z,15.70
2023-05-09T15:35:37.555Z,15.70
2023-05-09T15:39:19.490Z,15.60
2023-05-09T15:43:07.370Z,15.60
2023-05-09T15:46:50.143Z,15.60
2023-05-09T15:50:32.127Z,15.50
2023-05-09T15:54:13.836Z,15.40
2023-05-09T15:57:55.736Z,15.30
2023-05-09T16:01:37.891Z,15.20
2023-05-09T16:05:19.841Z,15.10
2023-05-09T16:09:05.061Z,15.00
2023-05-09T16:12:47.096Z,15.00
2023-05-09T16:16:29.150Z,14.90
2023-05-09T16:20:14.204Z,14.80
2023-05-09T16:23:57.928Z,14.70
2023-05-09T16:27:39.821Z,14.60
2023-05-09T16:31:21.689Z,14.60
2023-05-09T16:35:04.237Z,14.60
2023-05-09T16:38:45.933Z,14.50
2023-05-09T16:42:28.926Z,14.40
2023-05-09T16:46:11.144Z,14.30
2023-05-09T16:49:52.986Z,14.30
2023-05-09T16:53:34.719Z,14.30
2023-05-09T16:57:16.804Z,14.10
2023-05-09T17:00:59.845Z,14.10
2023-05-09T17:04:42.337Z,14.00
2023-05-09T17:08:24.219Z,13.90
2023-05-09T17:12:06.268Z,13.80
2023-05-09T17:15:49.129Z,13.70
2023-05-09T17:19:32.376Z,13.70
2023-05-09T17:23:14.242Z,13.60
2023-05-09T17:26:56.986Z,13.60
2023-05-09T17:30:39.608Z,13.50
2023-05-09T17:34:21.366Z,13.50
2023-05-09T17:38:03.601Z,13.50
2023-05-09T17:41:45.565Z,13.40
2023-05-09T17:45:27.378Z,13.40
2023-05-09T17:49:11.084Z,13.40
2023-05-09T17:52:53.387Z,13.40
2023-05-09T17:56:35.626Z,13.40
2023-05-09T18:00:18.384Z,13.40
2023-05-09T18:04:00.768Z,13.40
2023-05-09T18:07:42.600Z,13.40
2023-05-09T18:11:24.599Z,13.40
2023-05-09T18:15:07.196Z,13.30
2023-05-09T18:18:49.043Z,13.20
2023-05-09T18:22:30.955Z,13.20
2023-05-09T18:26:12.726Z,13.20
2023-05-09T18:29:54.666Z,13.30
2023-05-09T18:33:39.402Z,13.20
2023-05-09T18:37:22.728Z,13.20
2023-05-09T18:41:09.035Z,13.10
2023-05-09T18:44:51.131Z,13.10
2023-05-09T18:48:33.481Z,13.20
2023-05-09T18:52:17.543Z,13.20
2023-05-09T18:55:59.440Z,13.30
2023-05-09T18:59:41.235Z,13.30
2023-05-09T19:03:25.181Z,13.20
2023-05-09T19:07:07.803Z,13.20
2023-05-09T19:10:49.630Z,13.20
2023-05-09T19:14:31.931Z,13.30
2023-05-09T19:18:14.274Z,13.30
2023-05-09T19:21:56.263Z,13.20
2023-05-09T19:25:38.230Z,13.20
2023-05-09T19:29:20.046Z,13.10
2023-05-09T19:33:01.881Z,13.20
2023-05-09T19:36:43.724Z,13.10
2023-05-09T19:40:25.556Z,13.10
2023-05-09T19:44:07.340Z,13.10
2023-05-09T19:47:49.563Z,13.10
2023-05-09T19:51:31.908Z,13.10
2023-05-09T19:55:13.843Z,13.10
2023-05-09T19:58:55.742Z,13.10
2023-05-09T20:02:37.748Z,13.20
2023-05-09T20:06:19.634Z,13.20
2023-05-09T20:10:01.581Z,13.20
2023-05-09T20:13:43.992Z,13.20
2023-05-09T20:17:25.754Z,13.20
2023-05-09T20:21:09.764Z,13.30
2023-05-09T20:24:51.613Z,13.30
2023-05-09T20:28:33.459Z,13.30
2023-05-09T20:32:15.568Z,13.30
2023-05-09T20:35:57.413Z,13.20
2023-05-09T20:39:39.242Z,13.30
2023-05-09T20:43:21.042Z,13.20
2023-05-09T20:47:02.828Z,13.20
2023-05-09T20:50:44.690Z,13.30
2023-05-09T20:54:26.510Z,13.20
2023-05-09T20:58:08.268Z,13.20
2023-05-09T21:01:52.139Z,13.20
2023-05-09T21:05:33.916Z,13.10
2023-05-09T21:09:15.705Z,13.10
2023-05-09T21:12:57.816Z,12.90
2023-05-09T21:16:39.715Z,12.90
2023-05-09T21:20:21.670Z,12.80
2023-05-09T21:24:08.758Z,12.80
2023-05-09T21:27:50.582Z,12.70
2023-05-09T21:31:35.708Z,12.60
2023-05-09T21:35:17.519Z,12.60
2023-05-09T21:38:59.287Z,12.50
2023-05-09T21:42:42.168Z,12.40
2023-05-09T21:46:24.134Z,12.40
2023-05-09T21:50:06.728Z,12.30
2023-05-09T21:53:48.673Z,12.30
2023-05-09T21:57:30.384Z,12.20
2023-05-09T22:01:12.145Z,12.20
2023-05-09T22:04:54.390Z,12.10
2023-05-09T22:08:36.123Z,12.10
2023-05-09T22:12:17.862Z,12.10
2023-05-09T22:15:59.716Z,12.10
2023-05-09T22:19:41.501Z,12.10
2023-05-09T22:23:23.289Z,12.10
2023-05-09T22:27:05.148Z,12.10
2023-05-09T22:30:47.330Z,12.10
2023-05-09T22:34:29.346Z,12.10
2023-05-09T22:38:11.138Z,12.10
2023-05-09T22:41:52.965Z,12.10
2023-05-09T22:45:34.995Z,12.10
2023-05-09T22:49:16.760Z,12.00
2023-05-09T22:52:58.509Z,12.10
2023-05-09T22:56:40.392Z,12.10
2023-05-09T23:00:22.380Z,12.10
2023-05-09T23:04:04.302Z,12.10
2023-05-09T23:07:46.272Z,12.00
2023-05-09T23:11:28.157Z,12.00
2023-05-09T23:15:11.572Z,12.00
2023-05-09T23:18:53.355Z,12.00
2023-05-09T23:22:35.235Z,11.90
2023-05-09T23:26:17.445Z,11.90
2023-05-09T23:29:59.434Z,11.90
2023-05-09T23:33:41.220Z,11.80
2023-05-09T23:37:23.080Z,11.80
2023-05-09T23:41:05.008Z,11.80
2023-05-09T23:44:46.885Z,11.70
2023-05-09T23:48:28.797Z,11.70
2023-05-09T23:52:10.666Z,11.60
2023-05-09T23:55:52.516Z,11.60
2023-05-09T23:59:34.523Z,11.60
